地図

経路データ

SID SEASON NUMBER BASIN SUBBASIN NAME ISO_TIME NATURE LAT LON WMO_WIND WMO_PRES WMO_AGENCY TRACK_TYPE DIST2LAND LANDFALL IFLAG USA_AGENCY USA_ATCF_ID USA_LAT USA_LON USA_RECORD USA_STATUS USA_WIND USA_PRES USA_SSHS USA_R34_NE USA_R34_SE USA_R34_SW USA_R34_NW USA_R50_NE USA_R50_SE USA_R50_SW USA_R50_NW USA_R64_NE USA_R64_SE USA_R64_SW USA_R64_NW USA_POCI USA_ROCI USA_RMW USA_EYE TOKYO_LAT TOKYO_LON TOKYO_GRADE TOKYO_WIND TOKYO_PRES TOKYO_R50_DIR TOKYO_R50_LONG TOKYO_R50_SHORT TOKYO_R30_DIR TOKYO_R30_LONG TOKYO_R30_SHORT TOKYO_LAND CMA_LAT CMA_LON CMA_CAT CMA_WIND CMA_PRES HKO_LAT HKO_LON HKO_CAT HKO_WIND HKO_PRES NEWDELHI_LAT NEWDELHI_LON NEWDELHI_GRADE NEWDELHI_WIND NEWDELHI_PRES NEWDELHI_CI NEWDELHI_DP NEWDELHI_POCI REUNION_LAT REUNION_LON REUNION_TYPE REUNION_WIND REUNION_PRES REUNION_TNUM REUNION_CI REUNION_RMW REUNION_R34_NE REUNION_R34_SE REUNION_R34_SW REUNION_R34_NW REUNION_R50_NE REUNION_R50_SE REUNION_R50_SW REUNION_R50_NW REUNION_R64_NE REUNION_R64_SE REUNION_R64_SW REUNION_R64_NW BOM_LAT BOM_LON BOM_TYPE BOM_WIND BOM_PRES BOM_TNUM BOM_CI BOM_RMW BOM_R34_NE BOM_R34_SE BOM_R34_SW BOM_R34_NW BOM_R50_NE BOM_R50_SE BOM_R50_SW BOM_R50_NW BOM_R64_NE BOM_R64_SE BOM_R64_SW BOM_R64_NW BOM_ROCI BOM_POCI BOM_EYE BOM_POS_METHOD BOM_PRES_METHOD NADI_LAT NADI_LON NADI_CAT NADI_WIND NADI_PRES WELLINGTON_LAT WELLINGTON_LON WELLINGTON_WIND WELLINGTON_PRES DS824_LAT DS824_LON DS824_STAGE DS824_WIND DS824_PRES TD9636_LAT TD9636_LON TD9636_STAGE TD9636_WIND TD9636_PRES TD9635_LAT TD9635_LON TD9635_WIND TD9635_PRES TD9635_ROCI NEUMANN_LAT NEUMANN_LON NEUMANN_CLASS NEUMANN_WIND NEUMANN_PRES MLC_LAT MLC_LON MLC_CLASS MLC_WIND MLC_PRES USA_GUST BOM_GUST BOM_GUST_PER REUNION_GUST REUNION_GUST_PER USA_SEAHGT USA_SEARAD_NE USA_SEARAD_SE USA_SEARAD_SW USA_SEARAD_NW STORM_SPEED STORM_DIR
1939036S06049 1939 12 SI MM NOT_NAMED 1939-02-05 06:00:00 NR -6.20000 48.7000 main 663 611 __________O___ -1 -6.20000 48.7000 7 12 210
1939036S06049 1939 12 SI MM NOT_NAMED 1939-02-05 09:00:00 NR -6.70798 48.4004 main 611 561 __________P___ -1 -6.70798 48.4004 7 12 210
1939036S06049 1939 12 SI MM NOT_NAMED 1939-02-05 12:00:00 NR -7.21271 48.1004 main 561 516 __________P___ -1 -7.21271 48.1004 7 12 211
1939036S06049 1939 12 SI MM NOT_NAMED 1939-02-05 15:00:00 NR -7.71108 47.8002 main 516 474 __________P___ -1 -7.71108 47.8002 7 12 211
1939036S06049 1939 12 SI MM NOT_NAMED 1939-02-05 18:00:00 NR -8.20000 47.5000 main 474 439 __________O___ -1 -8.20000 47.5000 1 11 212
1939036S06049 1939 12 SI MM NOT_NAMED 1939-02-05 21:00:00 NR -8.67646 47.1998 main 439 425 __________P___ -1 -8.67646 47.1998 1 9 212
1939036S06049 1939 12 SI MM NOT_NAMED 1939-02-06 00:00:00 TS -8.94989 47.0198 main 431 410 _________OP___ -1 -8.20000 47.5000 TC 25 -9.13736 46.8998 1 7 214
1939036S06049 1939 12 SI MM NOT_NAMED 1939-02-06 03:00:00 TS -9.26808 46.7999 main 408 390 _________PP___ -1 -8.64505 47.2001 TC 25 -9.57959 46.5998 1 12 214
1939036S06049 1939 12 SI MM NOT_NAMED 1939-02-06 06:00:00 TS -9.92500 46.3625 reunion main 390 376 _____O___OO___ -1 -12.1000 45.0000 99 9.90000 -9.10000 46.9000 TC 25 -10.0000 46.3000 2 14 213
1939036S06049 1939 12 SI MM NOT_NAMED 1939-02-06 09:00:00 TS -10.4108 46.0331 main 385 374 _____P___PP___ -1 -12.0904 45.0142 99 -9.56497 46.6000 TC 30 -10.4169 45.9757 2 11 214
1939036S06049 1939 12 SI MM NOT_NAMED 1939-02-06 12:00:00 TS -10.8636 45.7174 main 382 377 _____P___OP___ -1 -12.0864 45.0235 99 -10.0000 46.3000 TC 35 -10.8101 45.6552 2 10 215
1939036S06049 1939 12 SI MM NOT_NAMED 1939-02-06 15:00:00 TS -11.2081 45.4599 main 382 382 _____P___PP___ -1 -12.0938 45.0230 99 -10.3575 45.9999 TC 35 -11.1732 45.3570 2 7 217
1939036S06049 1939 12 SI MM NOT_NAMED 1939-02-06 18:00:00 TS -11.4394 45.2692 main 382 374 _____P___OO___ -1 -12.1183 45.0077 99 -10.7000 45.7000 TC 35 -11.5000 45.1000 2 6 217
1939036S06049 1939 12 SI MM NOT_NAMED 1939-02-06 21:00:00 TS -11.6914 45.0869 main 377 373 _____P___PP___ -1 -12.1654 44.9727 99 -11.1150 45.3776 TC 35 -11.7938 44.9105 2 6 214
1939036S06049 1939 12 SI MM NOT_NAMED 1939-02-07 00:00:00 TS -11.9311 44.9250 main 382 377 _____P___OP___ -1 -12.2410 44.9131 99 -11.5000 45.1000 TC 35 -12.0522 44.7620 2 5 213
1939036S06049 1939 12 SI MM NOT_NAMED 1939-02-07 03:00:00 TS -12.1359 44.7946 main 380 375 _____P___PP___ -1 -12.3507 44.8238 99 -11.7724 44.9274 TC 35 -12.2845 44.6325 2 5 212
1939036S06049 1939 12 SI MM NOT_NAMED 1939-02-07 06:00:00 TS -12.3333 44.6667 reunion main 380 376 _____O___OO___ -1 -12.5000 44.7000 99 9.90000 -12.0000 44.8000 TC 35 -12.5000 44.5000 2 5 214
1939036S06049 1939 12 SI MM NOT_NAMED 1939-02-07 09:00:00 TS -12.5496 44.5104 main 392 368 _____P___PP___ -1 -12.6933 44.5370 99 -12.2575 44.6500 TC 35 -12.6981 44.3441 2 5 216
1939036S06049 1939 12 SI MM NOT_NAMED 1939-02-07 12:00:00 TS -12.7714 44.3373 main 368 349 _____P___OP___ -1 -12.9293 44.3323 99 -12.5000 44.5000 TC 35 -12.8849 44.1796 2 6 218
1939036S06049 1939 12 SI MM NOT_NAMED 1939-02-07 15:00:00 TS -12.9974 44.1472 main 352 335 _____P___PP___ -1 -13.2055 44.0837 99 -12.7075 44.3574 TC 35 -13.0793 44.0003 2 6 220
1939036S06049 1939 12 SI MM NOT_NAMED 1939-02-07 18:00:00 TS -13.2398 43.9297 main 339 317 _____P___OO___ -1 -13.5194 43.7890 99 -12.9000 44.2000 TC 35 -13.3000 43.8000 2 7 222
1939036S06049 1939 12 SI MM NOT_NAMED 1939-02-07 21:00:00 TS -13.5082 43.6801 main 317 291 _____P___PP___ -1 -13.8683 43.4458 99 -13.0850 44.0149 TC 35 -13.5712 43.5796 2 8 222
1939036S06049 1939 12 SI MM NOT_NAMED 1939-02-08 00:00:00 TS -13.8066 43.3963 main 291 251 _____P___OP___ -1 -14.2498 43.0516 99 -13.3000 43.8000 TC 35 -13.8699 43.3374 2 9 223
1939036S06049 1939 12 SI MM NOT_NAMED 1939-02-08 03:00:00 TS -14.1433 43.0793 main 251 215 _____P___PP___ -1 -14.6612 42.6039 99 -13.5850 43.5575 TC 35 -14.1837 43.0764 2 9 223
1939036S06049 1939 12 SI MM NOT_NAMED 1939-02-08 06:00:00 TS -14.5000 42.7333 reunion main 204 172 _____O___OO___ -1 -15.1000 42.1000 99 9.90000 -13.9000 43.3000 TC 35 -14.5000 42.8000 2 10 224
1939036S06049 1939 12 SI MM NOT_NAMED 1939-02-08 09:00:00 TS -14.8640 42.3648 main 172 130 _____P___PP___ -1 -15.5635 41.5386 99 -14.1999 43.0574 TC 35 -14.8285 42.4984 2 10 225
1939036S06049 1939 12 SI MM NOT_NAMED 1939-02-08 12:00:00 TS -15.2336 41.9699 main 130 102 _____P___OP___ -1 -16.0482 40.9243 99 -14.5000 42.8000 TC 35 -15.1526 42.1854 2 11 227
1939036S06049 1939 12 SI MM NOT_NAMED 1939-02-08 15:00:00 TS -15.6004 41.5503 main 108 77 _____P___PP___ -1 -16.5507 40.2636 99 -14.8000 42.5074 TC 35 -15.4504 41.8797 2 11 229
1939036S06049 1939 12 SI MM NOT_NAMED 1939-02-08 18:00:00 TS -15.9557 41.1210 main 82 69 _____P___OO___ -1 -17.0672 39.5630 99 -15.1000 42.2000 TC 35 -15.7000 41.6000 2 11 230
1939036S06049 1939 12 SI MM NOT_NAMED 1939-02-08 21:00:00 TS -16.2986 40.6951 main 69 57 _____P___PP___ -1 -17.5940 38.8293 99 -15.4225 41.8851 TC 35 -15.8791 41.3708 2 8 230
1939036S06049 1939 12 SI MM NOT_NAMED 1939-02-09 00:00:00 TS -16.4747 40.4805 main 63 54 _____P___OP___ -1 -18.1276 38.0694 99 -15.7000 41.6000 TC 35 -16.0097 41.1694 2 4 230
1939036S06049 1939 12 SI MM NOT_NAMED 1939-02-09 03:00:00 TS -16.5290 40.4054 main 54 54 _____P___PP___ -1 -18.6641 37.2905 99 -15.8799 41.3849 TC 35 -16.1104 40.9834 2 0 40
1939036S06049 1939 12 SI MM NOT_NAMED 1939-02-09 06:00:00 TS -16.4444 40.5000 reunion main 57 57 _____O___OO___ -1 -19.2000 36.5000 99 9.90000 -16.0000 41.2000 TC 35 -16.2000 40.8000 2 5 49
1939036S06049 1939 12 SI MM NOT_NAMED 1939-02-09 09:00:00 TS -16.2005 40.8045 main 69 61 _________PP___ -1 99 -16.1075 41.0000 TC 35 -16.2936 40.6090 2 2 38
1939036S06049 1939 12 SI MM NOT_NAMED 1939-02-09 12:00:00 TS -16.2826 40.6330 main 61 54 _________OP___ -1 99 -16.2000 40.8000 TC 35 -16.3928 40.4104 2 4 243
1939036S06049 1939 12 SI MM NOT_NAMED 1939-02-09 15:00:00 TS -16.3652 40.4688 main 57 39 _________PP___ -1 99 -16.3000 40.6000 TC 35 -16.4955 40.2065 2 4 242
1939036S06049 1939 12 SI MM NOT_NAMED 1939-02-09 18:00:00 TS -16.4500 40.3000 main 39 39 _________OO___ -1 99 -16.4000 40.4000 TC 35 -16.6000 40.0000 2 3 242
1939036S06049 1939 12 SI MM NOT_NAMED 1939-02-09 21:00:00 TS -16.5000 40.2000 main 39 24 _________P____ -1 99 -16.5000 40.2000 TC 35 2 3 242
1939036S06049 1939 12 SI MM NOT_NAMED 1939-02-10 00:00:00 TS -16.6000 40.0000 main 24 _________O____ -1 99 -16.6000 40.0000 TC 35 2 4 242

IBTrACS Databaseについて

本データベースは、米国NOAAが公開する1842年以降の世界の熱帯低気圧のベストトラックデータアーカイブInternational Best Track Archive for Climate Stewardship (IBTrACS)を、ウェブで閲覧しやすい形式に変換したものです。

最終更新日:2021-10-08